sensor_id;sensor_type;location;lat;lon;timestamp;P1;durP1;ratioP1;P2;durP2;ratioP2
74465;SDS011;62916;50.044;15.938;2023-11-19T00:02:08;3.50;;;3.20;;
74465;SDS011;62916;50.044;15.938;2023-11-19T00:04:39;3.20;;;2.90;;
74465;SDS011;62916;50.044;15.938;2023-11-19T00:07:10;3.90;;;3.10;;
74465;SDS011;62916;50.044;15.938;2023-11-19T00:09:41;4.10;;;2.90;;
74465;SDS011;62916;50.044;15.938;2023-11-19T00:12:12;3.70;;;2.90;;
74465;SDS011;62916;50.044;15.938;2023-11-19T00:14:43;3.80;;;3.40;;
74465;SDS011;62916;50.044;15.938;2023-11-19T00:17:14;4.50;;;2.80;;
74465;SDS011;62916;50.044;15.938;2023-11-19T00:19:45;3.90;;;3.10;;
74465;SDS011;62916;50.044;15.938;2023-11-19T00:22:17;4.60;;;3.10;;
74465;SDS011;62916;50.044;15.938;2023-11-19T00:24:49;3.40;;;3.10;;
74465;SDS011;62916;50.044;15.938;2023-11-19T00:27:20;3.60;;;2.90;;
74465;SDS011;62916;50.044;15.938;2023-11-19T00:29:52;3.40;;;3.10;;
74465;SDS011;62916;50.044;15.938;2023-11-19T00:32:23;3.60;;;3.10;;
74465;SDS011;62916;50.044;15.938;2023-11-19T00:34:54;3.30;;;3.00;;
74465;SDS011;62916;50.044;15.938;2023-11-19T00:37:25;4.00;;;3.30;;
74465;SDS011;62916;50.044;15.938;2023-11-19T00:39:56;4.10;;;3.20;;
74465;SDS011;62916;50.044;15.938;2023-11-19T00:42:27;3.50;;;3.20;;
74465;SDS011;62916;50.044;15.938;2023-11-19T00:44:58;3.90;;;3.30;;
74465;SDS011;62916;50.044;15.938;2023-11-19T00:47:29;2.90;;;2.60;;
74465;SDS011;62916;50.044;15.938;2023-11-19T00:50:00;3.70;;;3.10;;
74465;SDS011;62916;50.044;15.938;2023-11-19T00:52:31;3.50;;;3.20;;
74465;SDS011;62916;50.044;15.938;2023-11-19T00:55:02;3.60;;;3.30;;
74465;SDS011;62916;50.044;15.938;2023-11-19T00:57:35;3.10;;;2.80;;
74465;SDS011;62916;50.044;15.938;2023-11-19T01:00:07;4.20;;;2.90;;
74465;SDS011;62916;50.044;15.938;2023-11-19T01:02:47;3.30;;;3.00;;
74465;SDS011;62916;50.044;15.938;2023-11-19T01:05:20;3.80;;;3.30;;
74465;SDS011;62916;50.044;15.938;2023-11-19T01:07:51;3.30;;;3.00;;
74465;SDS011;62916;50.044;15.938;2023-11-19T01:10:22;3.00;;;2.70;;
74465;SDS011;62916;50.044;15.938;2023-11-19T01:12:53;3.60;;;2.70;;
74465;SDS011;62916;50.044;15.938;2023-11-19T01:15:25;3.20;;;2.70;;
74465;SDS011;62916;50.044;15.938;2023-11-19T01:17:56;3.10;;;2.80;;
74465;SDS011;62916;50.044;15.938;2023-11-19T01:20:27;3.20;;;2.60;;
74465;SDS011;62916;50.044;15.938;2023-11-19T01:22:58;3.40;;;3.00;;
74465;SDS011;62916;50.044;15.938;2023-11-19T01:25:28;3.20;;;2.70;;
74465;SDS011;62916;50.044;15.938;2023-11-19T01:27:59;3.10;;;2.80;;
74465;SDS011;62916;50.044;15.938;2023-11-19T01:30:30;3.30;;;2.80;;
74465;SDS011;62916;50.044;15.938;2023-11-19T01:33:01;3.20;;;2.60;;
74465;SDS011;62916;50.044;15.938;2023-11-19T01:38:04;3.40;;;2.80;;
74465;SDS011;62916;50.044;15.938;2023-11-19T01:40:36;3.20;;;2.50;;
74465;SDS011;62916;50.044;15.938;2023-11-19T01:43:07;3.20;;;2.90;;
74465;SDS011;62916;50.044;15.938;2023-11-19T01:45:39;2.80;;;2.50;;
74465;SDS011;62916;50.044;15.938;2023-11-19T01:48:10;3.30;;;2.50;;
74465;SDS011;62916;50.044;15.938;2023-11-19T01:50:43;2.90;;;2.50;;
74465;SDS011;62916;50.044;15.938;2023-11-19T01:53:14;2.50;;;2.30;;
74465;SDS011;62916;50.044;15.938;2023-11-19T01:55:46;2.90;;;2.60;;
74465;SDS011;62916;50.044;15.938;2023-11-19T01:58:17;3.10;;;2.80;;
74465;SDS011;62916;50.044;15.938;2023-11-19T02:00:48;2.80;;;2.50;;
74465;SDS011;62916;50.044;15.938;2023-11-19T02:03:20;3.20;;;2.70;;
74465;SDS011;62916;50.044;15.938;2023-11-19T02:08:23;3.30;;;3.00;;
74465;SDS011;62916;50.044;15.938;2023-11-19T02:10:54;2.90;;;2.60;;
74465;SDS011;62916;50.044;15.938;2023-11-19T02:13:25;3.40;;;2.50;;
74465;SDS011;62916;50.044;15.938;2023-11-19T02:15:57;3.00;;;2.40;;
74465;SDS011;62916;50.044;15.938;2023-11-19T02:18:29;3.40;;;2.90;;
74465;SDS011;62916;50.044;15.938;2023-11-19T02:21:00;3.30;;;3.00;;
74465;SDS011;62916;50.044;15.938;2023-11-19T02:23:33;3.00;;;2.30;;
74465;SDS011;62916;50.044;15.938;2023-11-19T02:26:05;2.80;;;2.60;;
74465;SDS011;62916;50.044;15.938;2023-11-19T02:28:42;2.50;;;2.20;;
74465;SDS011;62916;50.044;15.938;2023-11-19T02:31:14;2.60;;;2.30;;
74465;SDS011;62916;50.044;15.938;2023-11-19T02:33:45;2.50;;;2.30;;
74465;SDS011;62916;50.044;15.938;2023-11-19T02:36:17;2.90;;;2.60;;
74465;SDS011;62916;50.044;15.938;2023-11-19T02:38:49;2.90;;;2.30;;
74465;SDS011;62916;50.044;15.938;2023-11-19T02:41:20;3.60;;;2.40;;
74465;SDS011;62916;50.044;15.938;2023-11-19T02:43:52;2.70;;;2.40;;
74465;SDS011;62916;50.044;15.938;2023-11-19T02:46:22;2.50;;;2.30;;
74465;SDS011;62916;50.044;15.938;2023-11-19T02:48:54;2.80;;;2.50;;
74465;SDS011;62916;50.044;15.938;2023-11-19T02:51:25;2.60;;;2.30;;
74465;SDS011;62916;50.044;15.938;2023-11-19T02:53:58;3.10;;;2.30;;
74465;SDS011;62916;50.044;15.938;2023-11-19T02:56:29;2.60;;;2.30;;
74465;SDS011;62916;50.044;15.938;2023-11-19T02:59:04;3.30;;;3.00;;
74465;SDS011;62916;50.044;15.938;2023-11-19T03:01:46;2.70;;;2.30;;
74465;SDS011;62916;50.044;15.938;2023-11-19T03:04:18;2.60;;;2.30;;
74465;SDS011;62916;50.044;15.938;2023-11-19T03:06:50;2.60;;;2.40;;
74465;SDS011;62916;50.044;15.938;2023-11-19T03:09:22;3.20;;;2.90;;
74465;SDS011;62916;50.044;15.938;2023-11-19T03:11:53;2.70;;;2.30;;
74465;SDS011;62916;50.044;15.938;2023-11-19T03:14:24;2.90;;;2.40;;
74465;SDS011;62916;50.044;15.938;2023-11-19T03:16:55;2.90;;;2.00;;
74465;SDS011;62916;50.044;15.938;2023-11-19T03:19:26;2.70;;;2.40;;
74465;SDS011;62916;50.044;15.938;2023-11-19T03:21:57;3.00;;;2.30;;
74465;SDS011;62916;50.044;15.938;2023-11-19T03:24:30;3.50;;;2.60;;
74465;SDS011;62916;50.044;15.938;2023-11-19T03:27:01;3.50;;;2.50;;
74465;SDS011;62916;50.044;15.938;2023-11-19T03:29:32;2.90;;;2.20;;
74465;SDS011;62916;50.044;15.938;2023-11-19T03:32:03;2.80;;;2.50;;
74465;SDS011;62916;50.044;15.938;2023-11-19T03:34:35;2.80;;;2.40;;
74465;SDS011;62916;50.044;15.938;2023-11-19T03:37:06;3.70;;;2.30;;
74465;SDS011;62916;50.044;15.938;2023-11-19T03:39:37;3.00;;;2.50;;
74465;SDS011;62916;50.044;15.938;2023-11-19T03:42:08;2.60;;;2.20;;
74465;SDS011;62916;50.044;15.938;2023-11-19T03:44:41;2.40;;;2.20;;
74465;SDS011;62916;50.044;15.938;2023-11-19T03:47:11;3.20;;;2.50;;
74465;SDS011;62916;50.044;15.938;2023-11-19T03:49:43;2.40;;;1.80;;
74465;SDS011;62916;50.044;15.938;2023-11-19T03:52:18;2.50;;;2.30;;
74465;SDS011;62916;50.044;15.938;2023-11-19T03:54:49;2.80;;;2.50;;
74465;SDS011;62916;50.044;15.938;2023-11-19T03:57:21;4.60;;;2.10;;
74465;SDS011;62916;50.044;15.938;2023-11-19T03:59:52;2.40;;;2.20;;
74465;SDS011;62916;50.044;15.938;2023-11-19T04:02:23;2.50;;;2.00;;
74465;SDS011;62916;50.044;15.938;2023-11-19T04:04:56;2.80;;;2.60;;
74465;SDS011;62916;50.044;15.938;2023-11-19T04:07:27;2.40;;;2.00;;
74465;SDS011;62916;50.044;15.938;2023-11-19T04:09:57;2.30;;;1.90;;
74465;SDS011;62916;50.044;15.938;2023-11-19T04:12:28;2.30;;;2.10;;
74465;SDS011;62916;50.044;15.938;2023-11-19T04:14:59;2.90;;;2.10;;
74465;SDS011;62916;50.044;15.938;2023-11-19T04:17:31;2.50;;;2.30;;
74465;SDS011;62916;50.044;15.938;2023-11-19T04:20:02;2.30;;;2.10;;
74465;SDS011;62916;50.044;15.938;2023-11-19T04:22:38;2.30;;;2.10;;
74465;SDS011;62916;50.044;15.938;2023-11-19T04:25:09;3.00;;;2.20;;
74465;SDS011;62916;50.044;15.938;2023-11-19T04:27:41;2.30;;;2.10;;
74465;SDS011;62916;50.044;15.938;2023-11-19T04:30:13;2.30;;;2.10;;
74465;SDS011;62916;50.044;15.938;2023-11-19T04:32:44;2.60;;;2.20;;
74465;SDS011;62916;50.044;15.938;2023-11-19T04:35:16;2.50;;;1.90;;
74465;SDS011;62916;50.044;15.938;2023-11-19T04:37:48;2.70;;;2.00;;
74465;SDS011;62916;50.044;15.938;2023-11-19T04:40:18;2.10;;;1.90;;
74465;SDS011;62916;50.044;15.938;2023-11-19T04:42:50;3.00;;;2.30;;
74465;SDS011;62916;50.044;15.938;2023-11-19T04:45:21;3.30;;;2.40;;
74465;SDS011;62916;50.044;15.938;2023-11-19T04:47:52;2.20;;;2.00;;
74465;SDS011;62916;50.044;15.938;2023-11-19T04:50:23;2.30;;;2.10;;
74465;SDS011;62916;50.044;15.938;2023-11-19T04:52:55;3.10;;;2.00;;
74465;SDS011;62916;50.044;15.938;2023-11-19T04:55:28;2.70;;;1.90;;
74465;SDS011;62916;50.044;15.938;2023-11-19T04:57:59;1.80;;;1.70;;
74465;SDS011;62916;50.044;15.938;2023-11-19T05:00:29;2.70;;;2.20;;
74465;SDS011;62916;50.044;15.938;2023-11-19T05:03:01;2.10;;;2.00;;
74465;SDS011;62916;50.044;15.938;2023-11-19T05:05:32;2.60;;;2.10;;
74465;SDS011;62916;50.044;15.938;2023-11-19T05:08:03;2.80;;;2.10;;
74465;SDS011;62916;50.044;15.938;2023-11-19T05:10:34;2.10;;;2.00;;
74465;SDS011;62916;50.044;15.938;2023-11-19T05:13:05;2.50;;;2.30;;
74465;SDS011;62916;50.044;15.938;2023-11-19T05:15:36;2.70;;;1.90;;
74465;SDS011;62916;50.044;15.938;2023-11-19T05:18:07;2.50;;;2.30;;
74465;SDS011;62916;50.044;15.938;2023-11-19T05:20:38;2.10;;;1.90;;
74465;SDS011;62916;50.044;15.938;2023-11-19T05:23:09;2.80;;;2.10;;
74465;SDS011;62916;50.044;15.938;2023-11-19T05:25:43;2.20;;;1.90;;
74465;SDS011;62916;50.044;15.938;2023-11-19T05:28:15;2.20;;;2.00;;
74465;SDS011;62916;50.044;15.938;2023-11-19T05:30:46;2.10;;;1.90;;
74465;SDS011;62916;50.044;15.938;2023-11-19T05:33:17;2.10;;;1.80;;
74465;SDS011;62916;50.044;15.938;2023-11-19T05:35:48;2.60;;;2.40;;
74465;SDS011;62916;50.044;15.938;2023-11-19T05:38:19;2.40;;;2.20;;
74465;SDS011;62916;50.044;15.938;2023-11-19T05:40:50;2.20;;;2.00;;
74465;SDS011;62916;50.044;15.938;2023-11-19T05:43:20;2.20;;;1.80;;
74465;SDS011;62916;50.044;15.938;2023-11-19T05:45:51;1.90;;;1.70;;
74465;SDS011;62916;50.044;15.938;2023-11-19T05:48:22;2.10;;;1.90;;
74465;SDS011;62916;50.044;15.938;2023-11-19T05:50:55;4.30;;;1.80;;
74465;SDS011;62916;50.044;15.938;2023-11-19T05:53:25;1.90;;;1.80;;
74465;SDS011;62916;50.044;15.938;2023-11-19T05:55:57;2.20;;;2.00;;
74465;SDS011;62916;50.044;15.938;2023-11-19T05:58:32;2.30;;;2.00;;
74465;SDS011;62916;50.044;15.938;2023-11-19T06:01:04;1.90;;;1.70;;
74465;SDS011;62916;50.044;15.938;2023-11-19T06:03:36;2.40;;;2.20;;
74465;SDS011;62916;50.044;15.938;2023-11-19T06:06:08;1.70;;;1.60;;
74465;SDS011;62916;50.044;15.938;2023-11-19T06:08:39;2.10;;;1.90;;
74465;SDS011;62916;50.044;15.938;2023-11-19T06:11:11;1.80;;;1.70;;
74465;SDS011;62916;50.044;15.938;2023-11-19T06:13:46;2.00;;;1.60;;
74465;SDS011;62916;50.044;15.938;2023-11-19T06:16:19;1.90;;;1.70;;
74465;SDS011;62916;50.044;15.938;2023-11-19T06:18:50;2.10;;;1.80;;
74465;SDS011;62916;50.044;15.938;2023-11-19T06:21:21;3.60;;;1.90;;
74465;SDS011;62916;50.044;15.938;2023-11-19T06:23:52;2.10;;;1.80;;
74465;SDS011;62916;50.044;15.938;2023-11-19T06:26:23;2.30;;;2.00;;
74465;SDS011;62916;50.044;15.938;2023-11-19T06:28:54;2.10;;;1.80;;
74465;SDS011;62916;50.044;15.938;2023-11-19T06:31:26;2.70;;;2.10;;
74465;SDS011;62916;50.044;15.938;2023-11-19T06:33:56;2.50;;;2.20;;
74465;SDS011;62916;50.044;15.938;2023-11-19T06:36:27;4.20;;;2.30;;
74465;SDS011;62916;50.044;15.938;2023-11-19T06:38:58;2.10;;;1.90;;
74465;SDS011;62916;50.044;15.938;2023-11-19T06:41:29;2.50;;;2.30;;
74465;SDS011;62916;50.044;15.938;2023-11-19T06:44:01;2.60;;;2.40;;
74465;SDS011;62916;50.044;15.938;2023-11-19T06:46:32;2.40;;;2.20;;
74465;SDS011;62916;50.044;15.938;2023-11-19T06:49:03;3.20;;;2.90;;
74465;SDS011;62916;50.044;15.938;2023-11-19T06:51:35;2.70;;;2.50;;
74465;SDS011;62916;50.044;15.938;2023-11-19T06:54:09;3.10;;;2.70;;
74465;SDS011;62916;50.044;15.938;2023-11-19T06:56:40;2.50;;;2.30;;
74465;SDS011;62916;50.044;15.938;2023-11-19T06:59:13;2.40;;;2.20;;
74465;SDS011;62916;50.044;15.938;2023-11-19T07:01:44;2.90;;;2.50;;
74465;SDS011;62916;50.044;15.938;2023-11-19T07:04:15;3.00;;;2.20;;
74465;SDS011;62916;50.044;15.938;2023-11-19T07:06:46;2.40;;;2.20;;
74465;SDS011;62916;50.044;15.938;2023-11-19T07:09:17;3.10;;;2.50;;
74465;SDS011;62916;50.044;15.938;2023-11-19T07:11:49;2.50;;;2.30;;
74465;SDS011;62916;50.044;15.938;2023-11-19T07:14:20;2.80;;;2.20;;
74465;SDS011;62916;50.044;15.938;2023-11-19T07:16:51;2.60;;;2.40;;
74465;SDS011;62916;50.044;15.938;2023-11-19T07:19:23;3.90;;;2.60;;
74465;SDS011;62916;50.044;15.938;2023-11-19T07:21:54;3.00;;;2.10;;
74465;SDS011;62916;50.044;15.938;2023-11-19T07:24:25;2.80;;;2.20;;
74465;SDS011;62916;50.044;15.938;2023-11-19T07:26:57;2.80;;;2.40;;
74465;SDS011;62916;50.044;15.938;2023-11-19T07:29:29;2.40;;;2.20;;
74465;SDS011;62916;50.044;15.938;2023-11-19T07:32:01;2.60;;;2.00;;
74465;SDS011;62916;50.044;15.938;2023-11-19T07:34:33;2.30;;;2.10;;
74465;SDS011;62916;50.044;15.938;2023-11-19T07:37:05;3.30;;;2.20;;
74465;SDS011;62916;50.044;15.938;2023-11-19T07:39:36;2.40;;;2.20;;
74465;SDS011;62916;50.044;15.938;2023-11-19T07:42:09;2.20;;;1.70;;
74465;SDS011;62916;50.044;15.938;2023-11-19T07:44:40;3.10;;;1.90;;
74465;SDS011;62916;50.044;15.938;2023-11-19T07:47:12;2.40;;;2.10;;
74465;SDS011;62916;50.044;15.938;2023-11-19T07:49:43;4.50;;;2.20;;
74465;SDS011;62916;50.044;15.938;2023-11-19T07:52:14;3.30;;;1.70;;
74465;SDS011;62916;50.044;15.938;2023-11-19T07:54:48;1.60;;;1.50;;
74465;SDS011;62916;50.044;15.938;2023-11-19T07:57:19;1.80;;;1.60;;
74465;SDS011;62916;50.044;15.938;2023-11-19T07:59:52;3.00;;;1.90;;
74465;SDS011;62916;50.044;15.938;2023-11-19T08:02:22;4.20;;;1.80;;
74465;SDS011;62916;50.044;15.938;2023-11-19T08:04:54;1.70;;;1.60;;
74465;SDS011;62916;50.044;15.938;2023-11-19T08:07:25;1.70;;;1.60;;
74465;SDS011;62916;50.044;15.938;2023-11-19T08:09:56;2.20;;;1.40;;
74465;SDS011;62916;50.044;15.938;2023-11-19T08:12:28;11.20;;;1.90;;
74465;SDS011;62916;50.044;15.938;2023-11-19T08:14:59;1.50;;;1.40;;
74465;SDS011;62916;50.044;15.938;2023-11-19T08:17:30;1.50;;;1.40;;
74465;SDS011;62916;50.044;15.938;2023-11-19T08:20:01;2.40;;;1.40;;
74465;SDS011;62916;50.044;15.938;2023-11-19T08:22:33;3.40;;;1.40;;
74465;SDS011;62916;50.044;15.938;2023-11-19T08:25:05;1.90;;;1.40;;
74465;SDS011;62916;50.044;15.938;2023-11-19T08:27:37;1.80;;;1.30;;
74465;SDS011;62916;50.044;15.938;2023-11-19T08:30:09;1.50;;;1.40;;
74465;SDS011;62916;50.044;15.938;2023-11-19T08:32:41;1.40;;;1.30;;
74465;SDS011;62916;50.044;15.938;2023-11-19T08:35:12;2.10;;;1.20;;
74465;SDS011;62916;50.044;15.938;2023-11-19T08:37:44;1.10;;;0.90;;
74465;SDS011;62916;50.044;15.938;2023-11-19T08:40:15;1.80;;;1.30;;
74465;SDS011;62916;50.044;15.938;2023-11-19T08:42:47;2.10;;;1.10;;
74465;SDS011;62916;50.044;15.938;2023-11-19T08:45:19;2.00;;;1.40;;
74465;SDS011;62916;50.044;15.938;2023-11-19T08:47:50;2.40;;;1.30;;
74465;SDS011;62916;50.044;15.938;2023-11-19T08:50:21;2.30;;;1.50;;
74465;SDS011;62916;50.044;15.938;2023-11-19T08:52:52;2.00;;;1.50;;
74465;SDS011;62916;50.044;15.938;2023-11-19T08:55:24;1.40;;;1.30;;
74465;SDS011;62916;50.044;15.938;2023-11-19T08:57:56;1.50;;;1.20;;
74465;SDS011;62916;50.044;15.938;2023-11-19T09:00:28;1.60;;;1.50;;
74465;SDS011;62916;50.044;15.938;2023-11-19T09:03:00;1.80;;;1.70;;
74465;SDS011;62916;50.044;15.938;2023-11-19T09:05:32;1.20;;;1.10;;
74465;SDS011;62916;50.044;15.938;2023-11-19T09:08:04;1.20;;;1.10;;
74465;SDS011;62916;50.044;15.938;2023-11-19T09:10:36;1.40;;;1.20;;
74465;SDS011;62916;50.044;15.938;2023-11-19T09:13:08;1.60;;;1.30;;
74465;SDS011;62916;50.044;15.938;2023-11-19T09:15:39;1.80;;;1.00;;
74465;SDS011;62916;50.044;15.938;2023-11-19T09:18:10;1.50;;;1.20;;
74465;SDS011;62916;50.044;15.938;2023-11-19T09:20:41;1.60;;;1.40;;
74465;SDS011;62916;50.044;15.938;2023-11-19T09:23:13;3.50;;;2.30;;
74465;SDS011;62916;50.044;15.938;2023-11-19T09:25:44;3.60;;;3.30;;
74465;SDS011;62916;50.044;15.938;2023-11-19T09:28:15;4.50;;;4.20;;
74465;SDS011;62916;50.044;15.938;2023-11-19T09:30:46;4.50;;;4.10;;
74465;SDS011;62916;50.044;15.938;2023-11-19T09:33:17;4.40;;;3.70;;
74465;SDS011;62916;50.044;15.938;2023-11-19T09:35:49;9.50;;;4.30;;
74465;SDS011;62916;50.044;15.938;2023-11-19T09:38:21;7.50;;;4.10;;
74465;SDS011;62916;50.044;15.938;2023-11-19T09:40:52;4.10;;;3.60;;
74465;SDS011;62916;50.044;15.938;2023-11-19T09:43:25;4.20;;;3.80;;
74465;SDS011;62916;50.044;15.938;2023-11-19T09:45:58;4.30;;;3.90;;
74465;SDS011;62916;50.044;15.938;2023-11-19T09:48:34;4.40;;;3.50;;
74465;SDS011;62916;50.044;15.938;2023-11-19T09:51:08;4.40;;;3.80;;
74465;SDS011;62916;50.044;15.938;2023-11-19T09:53:40;3.80;;;3.40;;
74465;SDS011;62916;50.044;15.938;2023-11-19T09:56:11;4.70;;;3.70;;
74465;SDS011;62916;50.044;15.938;2023-11-19T09:58:45;4.10;;;3.70;;
74465;SDS011;62916;50.044;15.938;2023-11-19T10:01:16;4.30;;;4.00;;
74465;SDS011;62916;50.044;15.938;2023-11-19T10:03:55;4.00;;;3.70;;
74465;SDS011;62916;50.044;15.938;2023-11-19T10:06:30;3.90;;;3.60;;
74465;SDS011;62916;50.044;15.938;2023-11-19T10:09:01;4.70;;;3.40;;
74465;SDS011;62916;50.044;15.938;2023-11-19T10:11:33;3.70;;;3.40;;
74465;SDS011;62916;50.044;15.938;2023-11-19T10:14:04;4.70;;;3.60;;
74465;SDS011;62916;50.044;15.938;2023-11-19T10:16:35;3.90;;;3.60;;
74465;SDS011;62916;50.044;15.938;2023-11-19T10:19:07;3.80;;;3.20;;
74465;SDS011;62916;50.044;15.938;2023-11-19T10:21:41;5.80;;;3.80;;
74465;SDS011;62916;50.044;15.938;2023-11-19T10:24:14;4.60;;;3.50;;
74465;SDS011;62916;50.044;15.938;2023-11-19T10:26:48;5.00;;;4.20;;
74465;SDS011;62916;50.044;15.938;2023-11-19T10:29:20;4.50;;;4.10;;
74465;SDS011;62916;50.044;15.938;2023-11-19T10:31:57;3.90;;;3.40;;
74465;SDS011;62916;50.044;15.938;2023-11-19T10:34:48;3.60;;;3.30;;
74465;SDS011;62916;50.044;15.938;2023-11-19T10:37:28;5.10;;;4.30;;
74465;SDS011;62916;50.044;15.938;2023-11-19T10:40:01;5.50;;;3.90;;
74465;SDS011;62916;50.044;15.938;2023-11-19T10:42:33;5.30;;;3.70;;
74465;SDS011;62916;50.044;15.938;2023-11-19T10:45:05;4.90;;;4.40;;
74465;SDS011;62916;50.044;15.938;2023-11-19T10:47:53;4.40;;;4.00;;
74465;SDS011;62916;50.044;15.938;2023-11-19T10:50:27;4.80;;;3.90;;
74465;SDS011;62916;50.044;15.938;2023-11-19T10:52:58;5.10;;;3.70;;
74465;SDS011;62916;50.044;15.938;2023-11-19T10:55:31;4.50;;;3.70;;
74465;SDS011;62916;50.044;15.938;2023-11-19T10:58:04;4.50;;;3.70;;
74465;SDS011;62916;50.044;15.938;2023-11-19T11:00:39;3.70;;;3.40;;
74465;SDS011;62916;50.044;15.938;2023-11-19T11:03:16;4.10;;;3.70;;
74465;SDS011;62916;50.044;15.938;2023-11-19T11:05:48;5.30;;;3.60;;
74465;SDS011;62916;50.044;15.938;2023-11-19T11:08:20;4.50;;;4.10;;
74465;SDS011;62916;50.044;15.938;2023-11-19T11:10:53;5.10;;;3.70;;
74465;SDS011;62916;50.044;15.938;2023-11-19T11:15:57;4.10;;;3.60;;
74465;SDS011;62916;50.044;15.938;2023-11-19T11:18:29;4.60;;;3.60;;
74465;SDS011;62916;50.044;15.938;2023-11-19T11:21:01;4.20;;;3.80;;
74465;SDS011;62916;50.044;15.938;2023-11-19T11:23:47;4.80;;;4.30;;
74465;SDS011;62916;50.044;15.938;2023-11-19T11:32:24;4.90;;;4.20;;
74465;SDS011;62916;50.044;15.938;2023-11-19T11:35:08;4.80;;;3.60;;
74465;SDS011;62916;50.044;15.938;2023-11-19T11:37:49;5.40;;;3.90;;
74465;SDS011;62916;50.044;15.938;2023-11-19T11:40:25;5.00;;;3.80;;
74465;SDS011;62916;50.044;15.938;2023-11-19T11:42:56;4.40;;;4.00;;
74465;SDS011;62916;50.044;15.938;2023-11-19T11:45:37;4.20;;;3.30;;
74465;SDS011;62916;50.044;15.938;2023-11-19T11:48:11;6.00;;;4.10;;
74465;SDS011;62916;50.044;15.938;2023-11-19T11:53:22;4.20;;;3.40;;
74465;SDS011;62916;50.044;15.938;2023-11-19T11:56:00;3.80;;;3.50;;
74465;SDS011;62916;50.044;15.938;2023-11-19T11:58:32;5.40;;;3.60;;
74465;SDS011;62916;50.044;15.938;2023-11-19T12:01:06;4.40;;;3.40;;
74465;SDS011;62916;50.044;15.938;2023-11-19T12:03:48;3.90;;;3.30;;
74465;SDS011;62916;50.044;15.938;2023-11-19T12:06:26;4.20;;;3.50;;
74465;SDS011;62916;50.044;15.938;2023-11-19T12:09:01;3.60;;;3.30;;
74465;SDS011;62916;50.044;15.938;2023-11-19T12:11:33;4.30;;;3.70;;
74465;SDS011;62916;50.044;15.938;2023-11-19T12:14:05;3.90;;;3.50;;
74465;SDS011;62916;50.044;15.938;2023-11-19T12:16:37;4.00;;;3.50;;
74465;SDS011;62916;50.044;15.938;2023-11-19T12:19:09;5.00;;;3.80;;
74465;SDS011;62916;50.044;15.938;2023-11-19T12:21:42;4.00;;;3.70;;
74465;SDS011;62916;50.044;15.938;2023-11-19T12:24:13;5.40;;;3.40;;
74465;SDS011;62916;50.044;15.938;2023-11-19T12:26:45;4.50;;;3.60;;
74465;SDS011;62916;50.044;15.938;2023-11-19T12:29:20;5.00;;;3.90;;
74465;SDS011;62916;50.044;15.938;2023-11-19T12:31:55;4.50;;;3.70;;
74465;SDS011;62916;50.044;15.938;2023-11-19T12:34:33;5.30;;;3.70;;
74465;SDS011;62916;50.044;15.938;2023-11-19T12:37:05;4.20;;;3.80;;
74465;SDS011;62916;50.044;15.938;2023-11-19T12:39:37;3.80;;;3.40;;
74465;SDS011;62916;50.044;15.938;2023-11-19T12:42:09;4.00;;;3.60;;
74465;SDS011;62916;50.044;15.938;2023-11-19T12:44:48;4.90;;;3.60;;
74465;SDS011;62916;50.044;15.938;2023-11-19T12:47:25;6.50;;;3.40;;
74465;SDS011;62916;50.044;15.938;2023-11-19T12:49:58;5.30;;;3.60;;
74465;SDS011;62916;50.044;15.938;2023-11-19T12:52:29;3.60;;;3.30;;
74465;SDS011;62916;50.044;15.938;2023-11-19T12:55:00;4.40;;;3.20;;
74465;SDS011;62916;50.044;15.938;2023-11-19T12:57:39;3.80;;;3.40;;
74465;SDS011;62916;50.044;15.938;2023-11-19T13:00:19;5.80;;;3.90;;
74465;SDS011;62916;50.044;15.938;2023-11-19T13:02:52;4.20;;;3.80;;
74465;SDS011;62916;50.044;15.938;2023-11-19T13:05:29;4.70;;;3.30;;
74465;SDS011;62916;50.044;15.938;2023-11-19T13:08:02;4.30;;;3.40;;
74465;SDS011;62916;50.044;15.938;2023-11-19T13:10:50;4.70;;;3.90;;
74465;SDS011;62916;50.044;15.938;2023-11-19T13:13:22;5.10;;;3.40;;
74465;SDS011;62916;50.044;15.938;2023-11-19T13:15:53;5.80;;;3.70;;
74465;SDS011;62916;50.044;15.938;2023-11-19T13:18:31;5.30;;;3.20;;
74465;SDS011;62916;50.044;15.938;2023-11-19T13:21:05;4.20;;;3.60;;
74465;SDS011;62916;50.044;15.938;2023-11-19T13:23:36;5.40;;;3.50;;
74465;SDS011;62916;50.044;15.938;2023-11-19T13:26:07;4.60;;;3.20;;
74465;SDS011;62916;50.044;15.938;2023-11-19T13:28:38;4.90;;;3.90;;
74465;SDS011;62916;50.044;15.938;2023-11-19T13:31:09;5.30;;;3.60;;
74465;SDS011;62916;50.044;15.938;2023-11-19T13:33:41;5.00;;;3.20;;
74465;SDS011;62916;50.044;15.938;2023-11-19T13:36:12;4.30;;;3.50;;
74465;SDS011;62916;50.044;15.938;2023-11-19T13:38:44;4.60;;;3.40;;
74465;SDS011;62916;50.044;15.938;2023-11-19T13:41:16;4.00;;;3.60;;
74465;SDS011;62916;50.044;15.938;2023-11-19T13:43:48;3.60;;;3.30;;
74465;SDS011;62916;50.044;15.938;2023-11-19T13:46:19;4.00;;;3.60;;
74465;SDS011;62916;50.044;15.938;2023-11-19T13:48:50;4.60;;;3.30;;
74465;SDS011;62916;50.044;15.938;2023-11-19T13:51:21;3.80;;;3.30;;
74465;SDS011;62916;50.044;15.938;2023-11-19T13:53:54;4.70;;;3.10;;
74465;SDS011;62916;50.044;15.938;2023-11-19T13:56:25;4.40;;;3.30;;
74465;SDS011;62916;50.044;15.938;2023-11-19T13:58:56;3.30;;;3.00;;
74465;SDS011;62916;50.044;15.938;2023-11-19T14:01:28;3.90;;;3.30;;
74465;SDS011;62916;50.044;15.938;2023-11-19T14:04:00;4.50;;;3.20;;
74465;SDS011;62916;50.044;15.938;2023-11-19T14:06:31;4.60;;;3.70;;
74465;SDS011;62916;50.044;15.938;2023-11-19T14:09:02;7.00;;;3.60;;
74465;SDS011;62916;50.044;15.938;2023-11-19T14:11:35;5.60;;;3.20;;
74465;SDS011;62916;50.044;15.938;2023-11-19T14:14:07;4.00;;;3.50;;
74465;SDS011;62916;50.044;15.938;2023-11-19T14:16:38;6.60;;;3.70;;
74465;SDS011;62916;50.044;15.938;2023-11-19T14:19:09;3.10;;;2.60;;
74465;SDS011;62916;50.044;15.938;2023-11-19T14:21:41;4.60;;;3.20;;
74465;SDS011;62916;50.044;15.938;2023-11-19T14:24:13;4.00;;;2.70;;
74465;SDS011;62916;50.044;15.938;2023-11-19T14:26:46;4.40;;;4.00;;
74465;SDS011;62916;50.044;15.938;2023-11-19T14:29:19;4.90;;;3.40;;
74465;SDS011;62916;50.044;15.938;2023-11-19T14:31:50;4.40;;;3.10;;
74465;SDS011;62916;50.044;15.938;2023-11-19T14:34:22;4.50;;;3.30;;
74465;SDS011;62916;50.044;15.938;2023-11-19T14:36:54;6.30;;;3.50;;
74465;SDS011;62916;50.044;15.938;2023-11-19T14:39:25;3.90;;;3.40;;
74465;SDS011;62916;50.044;15.938;2023-11-19T14:41:59;5.00;;;3.70;;
74465;SDS011;62916;50.044;15.938;2023-11-19T14:44:32;7.00;;;3.50;;
74465;SDS011;62916;50.044;15.938;2023-11-19T14:47:04;5.00;;;3.20;;
74465;SDS011;62916;50.044;15.938;2023-11-19T14:49:36;3.40;;;2.80;;
74465;SDS011;62916;50.044;15.938;2023-11-19T14:52:07;3.80;;;3.00;;
74465;SDS011;62916;50.044;15.938;2023-11-19T14:54:42;4.70;;;3.50;;
74465;SDS011;62916;50.044;15.938;2023-11-19T14:57:13;4.50;;;3.00;;
74465;SDS011;62916;50.044;15.938;2023-11-19T14:59:45;4.70;;;3.30;;
74465;SDS011;62916;50.044;15.938;2023-11-19T15:02:16;4.80;;;3.20;;
74465;SDS011;62916;50.044;15.938;2023-11-19T15:04:47;4.40;;;2.80;;
74465;SDS011;62916;50.044;15.938;2023-11-19T15:07:18;4.70;;;2.80;;
74465;SDS011;62916;50.044;15.938;2023-11-19T15:09:50;3.90;;;3.20;;
74465;SDS011;62916;50.044;15.938;2023-11-19T15:12:22;6.30;;;3.30;;
74465;SDS011;62916;50.044;15.938;2023-11-19T15:14:54;4.60;;;2.80;;
74465;SDS011;62916;50.044;15.938;2023-11-19T15:17:26;5.50;;;3.40;;
74465;SDS011;62916;50.044;15.938;2023-11-19T15:19:57;4.90;;;2.80;;